sensor_id;sensor_type;location;lat;lon;timestamp;pressure;altitude;pressure_sealevel;temperature;humidity
12775;BME280;6451;42.630;23.382;2022-08-07T00:01:38;94163.38;;;22.03;100.00
12775;BME280;6451;42.630;23.382;2022-08-07T00:04:05;94159.47;;;22.00;100.00
12775;BME280;6451;42.630;23.382;2022-08-07T00:06:33;94165.34;;;22.02;100.00
12775;BME280;6451;42.630;23.382;2022-08-07T00:09:00;94140.19;;;21.97;100.00
12775;BME280;6451;42.630;23.382;2022-08-07T00:11:27;94166.56;;;22.01;100.00
12775;BME280;6451;42.630;23.382;2022-08-07T00:13:54;94173.91;;;21.88;100.00
12775;BME280;6451;42.630;23.382;2022-08-07T00:16:23;94144.03;;;21.59;100.00
12775;BME280;6451;42.630;23.382;2022-08-07T00:18:50;94175.72;;;21.75;100.00
12775;BME280;6451;42.630;23.382;2022-08-07T00:21:17;94171.75;;;21.76;100.00
12775;BME280;6451;42.630;23.382;2022-08-07T00:23:43;94160.34;;;21.74;100.00
12775;BME280;6451;42.630;23.382;2022-08-07T00:26:11;94168.22;;;21.75;100.00
12775;BME280;6451;42.630;23.382;2022-08-07T00:28:38;94165.75;;;21.81;100.00
12775;BME280;6451;42.630;23.382;2022-08-07T00:31:08;94156.91;;;21.89;100.00
12775;BME280;6451;42.630;23.382;2022-08-07T00:33:37;94127.28;;;21.70;100.00
12775;BME280;6451;42.630;23.382;2022-08-07T00:36:06;94165.84;;;21.97;100.00
12775;BME280;6451;42.630;23.382;2022-08-07T00:38:34;94168.31;;;21.91;100.00
12775;BME280;6451;42.630;23.382;2022-08-07T00:41:03;94172.34;;;21.87;100.00
12775;BME280;6451;42.630;23.382;2022-08-07T00:43:30;94173.44;;;21.70;100.00
12775;BME280;6451;42.630;23.382;2022-08-07T00:45:58;94169.97;;;21.42;100.00
12775;BME280;6451;42.630;23.382;2022-08-07T00:48:25;94168.59;;;21.27;100.00
12775;BME280;6451;42.630;23.382;2022-08-07T00:50:55;94170.94;;;21.32;100.00
12775;BME280;6451;42.630;23.382;2022-08-07T00:53:21;94164.69;;;21.51;100.00
12775;BME280;6451;42.630;23.382;2022-08-07T00:55:49;94148.78;;;21.35;100.00
12775;BME280;6451;42.630;23.382;2022-08-07T00:58:18;94171.88;;;21.69;100.00
12775;BME280;6451;42.630;23.382;2022-08-07T01:00:45;94148.47;;;21.53;100.00
12775;BME280;6451;42.630;23.382;2022-08-07T01:03:12;94177.78;;;21.71;100.00
12775;BME280;6451;42.630;23.382;2022-08-07T01:05:41;94169.97;;;21.65;100.00
12775;BME280;6451;42.630;23.382;2022-08-07T01:08:09;94174.53;;;21.52;100.00
12775;BME280;6451;42.630;23.382;2022-08-07T01:10:36;94169.84;;;21.49;100.00
12775;BME280;6451;42.630;23.382;2022-08-07T01:13:04;94175.31;;;21.53;100.00
12775;BME280;6451;42.630;23.382;2022-08-07T01:15:33;94167.53;;;21.48;100.00
12775;BME280;6451;42.630;23.382;2022-08-07T01:18:00;94176.84;;;21.30;100.00
12775;BME280;6451;42.630;23.382;2022-08-07T01:20:32;94180.72;;;21.09;100.00
12775;BME280;6451;42.630;23.382;2022-08-07T01:23:01;94170.41;;;20.87;100.00
12775;BME280;6451;42.630;23.382;2022-08-07T01:25:28;94178.72;;;20.83;100.00
12775;BME280;6451;42.630;23.382;2022-08-07T01:27:56;94170.44;;;20.83;100.00
12775;BME280;6451;42.630;23.382;2022-08-07T01:30:26;94177.94;;;20.82;100.00
12775;BME280;6451;42.630;23.382;2022-08-07T01:32:54;94178.25;;;20.88;100.00
12775;BME280;6451;42.630;23.382;2022-08-07T01:35:21;94164.13;;;20.86;100.00
12775;BME280;6451;42.630;23.382;2022-08-07T01:37:49;94142.09;;;20.82;100.00
12775;BME280;6451;42.630;23.382;2022-08-07T01:40:19;94173.00;;;20.97;100.00
12775;BME280;6451;42.630;23.382;2022-08-07T01:42:49;94180.75;;;21.06;100.00
12775;BME280;6451;42.630;23.382;2022-08-07T01:45:17;94179.88;;;21.13;100.00
12775;BME280;6451;42.630;23.382;2022-08-07T01:47:46;94182.97;;;21.15;100.00
12775;BME280;6451;42.630;23.382;2022-08-07T01:50:14;94190.06;;;21.16;100.00
12775;BME280;6451;42.630;23.382;2022-08-07T01:52:42;94192.81;;;21.16;100.00
12775;BME280;6451;42.630;23.382;2022-08-07T01:55:12;94201.75;;;21.23;100.00
12775;BME280;6451;42.630;23.382;2022-08-07T01:57:42;94221.69;;;21.38;100.00
12775;BME280;6451;42.630;23.382;2022-08-07T02:00:12;94245.22;;;21.19;100.00
12775;BME280;6451;42.630;23.382;2022-08-07T02:02:43;94267.38;;;21.12;100.00
12775;BME280;6451;42.630;23.382;2022-08-07T02:05:15;94254.47;;;21.05;100.00
12775;BME280;6451;42.630;23.382;2022-08-07T02:07:48;94251.63;;;20.82;100.00
12775;BME280;6451;42.630;23.382;2022-08-07T02:10:16;94245.69;;;20.83;100.00
12775;BME280;6451;42.630;23.382;2022-08-07T02:12:48;94276.78;;;21.18;100.00
12775;BME280;6451;42.630;23.382;2022-08-07T02:15:19;94289.66;;;21.28;100.00
12775;BME280;6451;42.630;23.382;2022-08-07T02:17:47;94288.09;;;21.27;100.00
12775;BME280;6451;42.630;23.382;2022-08-07T02:20:15;94302.75;;;21.21;100.00
12775;BME280;6451;42.630;23.382;2022-08-07T02:22:45;94303.94;;;21.20;100.00
12775;BME280;6451;42.630;23.382;2022-08-07T02:25:15;94242.16;;;20.83;100.00
12775;BME280;6451;42.630;23.382;2022-08-07T02:27:43;94283.88;;;21.16;100.00
12775;BME280;6451;42.630;23.382;2022-08-07T02:30:13;94288.47;;;21.29;100.00
12775;BME280;6451;42.630;23.382;2022-08-07T02:32:40;94280.22;;;21.26;100.00
12775;BME280;6451;42.630;23.382;2022-08-07T02:35:08;94284.66;;;21.16;100.00
12775;BME280;6451;42.630;23.382;2022-08-07T02:37:38;94273.75;;;21.09;100.00
12775;BME280;6451;42.630;23.382;2022-08-07T02:40:07;94259.97;;;21.05;100.00
12775;BME280;6451;42.630;23.382;2022-08-07T02:42:35;94257.06;;;20.89;100.00
12775;BME280;6451;42.630;23.382;2022-08-07T02:45:04;94249.19;;;20.88;100.00
12775;BME280;6451;42.630;23.382;2022-08-07T02:47:33;94228.19;;;20.97;100.00
12775;BME280;6451;42.630;23.382;2022-08-07T02:50:01;94224.13;;;21.05;100.00
12775;BME280;6451;42.630;23.382;2022-08-07T02:52:32;94227.66;;;21.06;100.00
12775;BME280;6451;42.630;23.382;2022-08-07T02:55:04;94220.91;;;21.10;100.00
12775;BME280;6451;42.630;23.382;2022-08-07T02:57:35;94224.13;;;21.05;100.00
12775;BME280;6451;42.630;23.382;2022-08-07T03:00:03;94228.75;;;21.12;100.00
12775;BME280;6451;42.630;23.382;2022-08-07T03:02:30;94222.34;;;21.19;100.00
12775;BME280;6451;42.630;23.382;2022-08-07T03:05:00;94215.56;;;21.23;100.00
12775;BME280;6451;42.630;23.382;2022-08-07T03:07:27;94216.28;;;21.31;100.00
12775;BME280;6451;42.630;23.382;2022-08-07T03:09:55;94217.94;;;21.25;100.00
12775;BME280;6451;42.630;23.382;2022-08-07T03:12:22;94211.59;;;21.28;100.00
12775;BME280;6451;42.630;23.382;2022-08-07T03:14:49;94214.13;;;21.15;100.00
12775;BME280;6451;42.630;23.382;2022-08-07T03:17:17;94215.84;;;21.05;100.00
12775;BME280;6451;42.630;23.382;2022-08-07T03:19:44;94211.88;;;20.79;100.00
12775;BME280;6451;42.630;23.382;2022-08-07T03:22:15;94210.22;;;20.55;100.00
12775;BME280;6451;42.630;23.382;2022-08-07T03:24:43;94218.06;;;20.87;100.00
12775;BME280;6451;42.630;23.382;2022-08-07T03:27:10;94209.13;;;20.79;100.00
12775;BME280;6451;42.630;23.382;2022-08-07T03:29:39;94208.59;;;20.88;100.00
12775;BME280;6451;42.630;23.382;2022-08-07T03:32:09;94204.81;;;21.05;100.00
12775;BME280;6451;42.630;23.382;2022-08-07T03:34:38;94210.25;;;20.82;100.00
12775;BME280;6451;42.630;23.382;2022-08-07T03:37:06;94218.16;;;20.80;100.00
12775;BME280;6451;42.630;23.382;2022-08-07T03:39:37;94213.38;;;20.84;100.00
12775;BME280;6451;42.630;23.382;2022-08-07T03:42:07;94200.25;;;20.92;100.00
12775;BME280;6451;42.630;23.382;2022-08-07T03:44:35;94213.19;;;20.98;100.00
12775;BME280;6451;42.630;23.382;2022-08-07T03:47:04;94210.56;;;21.15;100.00
12775;BME280;6451;42.630;23.382;2022-08-07T03:49:32;94217.66;;;21.16;100.00
12775;BME280;6451;42.630;23.382;2022-08-07T03:51:59;94209.78;;;21.14;100.00
12775;BME280;6451;42.630;23.382;2022-08-07T03:54:27;94200.03;;;21.09;100.00
12775;BME280;6451;42.630;23.382;2022-08-07T03:56:56;94222.53;;;21.35;100.00
12775;BME280;6451;42.630;23.382;2022-08-07T03:59:25;94224.41;;;21.42;100.00
12775;BME280;6451;42.630;23.382;2022-08-07T04:01:53;94219.59;;;21.46;100.00
12775;BME280;6451;42.630;23.382;2022-08-07T04:04:21;94235.25;;;21.52;100.00
12775;BME280;6451;42.630;23.382;2022-08-07T04:06:48;94236.34;;;21.58;100.00
12775;BME280;6451;42.630;23.382;2022-08-07T04:09:15;94235.38;;;21.69;100.00
12775;BME280;6451;42.630;23.382;2022-08-07T04:11:43;94241.53;;;21.80;100.00
12775;BME280;6451;42.630;23.382;2022-08-07T04:14:14;94238.09;;;21.96;100.00
12775;BME280;6451;42.630;23.382;2022-08-07T04:16:42;94242.34;;;21.77;100.00
12775;BME280;6451;42.630;23.382;2022-08-07T04:19:09;94251.38;;;21.81;100.00
12775;BME280;6451;42.630;23.382;2022-08-07T04:21:36;94246.94;;;21.87;100.00
12775;BME280;6451;42.630;23.382;2022-08-07T04:24:04;94250.41;;;22.14;100.00
12775;BME280;6451;42.630;23.382;2022-08-07T04:26:35;94232.22;;;21.93;100.00
12775;BME280;6451;42.630;23.382;2022-08-07T04:29:02;94255.34;;;22.03;100.00
12775;BME280;6451;42.630;23.382;2022-08-07T04:31:31;94249.81;;;22.03;100.00
12775;BME280;6451;42.630;23.382;2022-08-07T04:33:58;94234.69;;;21.88;100.00
12775;BME280;6451;42.630;23.382;2022-08-07T04:36:25;94234.78;;;22.04;100.00
12775;BME280;6451;42.630;23.382;2022-08-07T04:38:54;94257.22;;;22.10;100.00
12775;BME280;6451;42.630;23.382;2022-08-07T04:41:21;94259.97;;;22.33;100.00
12775;BME280;6451;42.630;23.382;2022-08-07T04:43:48;94241.69;;;22.39;100.00
12775;BME280;6451;42.630;23.382;2022-08-07T04:46:22;94249.81;;;22.66;100.00
12775;BME280;6451;42.630;23.382;2022-08-07T04:49:00;94244.72;;;22.45;100.00
12775;BME280;6451;42.630;23.382;2022-08-07T04:51:36;94257.91;;;22.57;100.00
12775;BME280;6451;42.630;23.382;2022-08-07T04:54:16;94259.97;;;22.73;100.00
12775;BME280;6451;42.630;23.382;2022-08-07T04:56:49;94237.78;;;22.96;100.00
12775;BME280;6451;42.630;23.382;2022-08-07T04:59:24;94258.69;;;22.97;100.00
12775;BME280;6451;42.630;23.382;2022-08-07T05:02:01;94257.66;;;23.27;100.00
12775;BME280;6451;42.630;23.382;2022-08-07T05:04:34;94263.22;;;23.08;100.00
12775;BME280;6451;42.630;23.382;2022-08-07T05:07:12;94266.22;;;23.17;100.00
12775;BME280;6451;42.630;23.382;2022-08-07T05:09:51;94268.88;;;23.20;100.00
12775;BME280;6451;42.630;23.382;2022-08-07T05:12:25;94281.19;;;23.19;100.00
12775;BME280;6451;42.630;23.382;2022-08-07T05:14:59;94265.44;;;23.16;100.00
12775;BME280;6451;42.630;23.382;2022-08-07T05:17:34;94283.22;;;23.15;100.00
12775;BME280;6451;42.630;23.382;2022-08-07T05:20:03;94280.94;;;23.30;100.00
12775;BME280;6451;42.630;23.382;2022-08-07T05:22:34;94282.59;;;23.64;100.00
12775;BME280;6451;42.630;23.382;2022-08-07T05:25:03;94278.88;;;23.70;100.00
12775;BME280;6451;42.630;23.382;2022-08-07T05:27:31;94281.03;;;23.95;100.00
12775;BME280;6451;42.630;23.382;2022-08-07T05:29:59;94286.75;;;23.88;100.00
12775;BME280;6451;42.630;23.382;2022-08-07T05:32:27;94286.13;;;23.97;100.00
12775;BME280;6451;42.630;23.382;2022-08-07T05:34:57;94277.91;;;24.09;100.00
12775;BME280;6451;42.630;23.382;2022-08-07T05:37:31;94286.91;;;24.13;100.00
12775;BME280;6451;42.630;23.382;2022-08-07T05:39:59;94279.88;;;24.25;100.00
12775;BME280;6451;42.630;23.382;2022-08-07T05:42:27;94274.84;;;24.20;100.00
12775;BME280;6451;42.630;23.382;2022-08-07T05:44:54;94283.53;;;24.38;100.00
12775;BME280;6451;42.630;23.382;2022-08-07T05:47:22;94292.38;;;24.33;100.00
12775;BME280;6451;42.630;23.382;2022-08-07T05:49:50;94298.41;;;24.45;100.00
12775;BME280;6451;42.630;23.382;2022-08-07T05:52:17;94309.00;;;24.50;100.00
12775;BME280;6451;42.630;23.382;2022-08-07T05:54:46;94307.66;;;24.71;100.00
12775;BME280;6451;42.630;23.382;2022-08-07T05:57:14;94316.19;;;24.47;100.00
12775;BME280;6451;42.630;23.382;2022-08-07T05:59:43;94316.06;;;24.67;100.00
12775;BME280;6451;42.630;23.382;2022-08-07T06:02:13;94322.78;;;24.82;100.00
12775;BME280;6451;42.630;23.382;2022-08-07T06:04:44;94315.78;;;24.78;100.00
12775;BME280;6451;42.630;23.382;2022-08-07T06:07:14;94315.22;;;24.83;100.00
12775;BME280;6451;42.630;23.382;2022-08-07T06:09:42;94319.28;;;24.94;100.00
12775;BME280;6451;42.630;23.382;2022-08-07T06:12:12;94323.25;;;25.22;100.00
12775;BME280;6451;42.630;23.382;2022-08-07T06:14:40;94317.59;;;25.26;100.00
12775;BME280;6451;42.630;23.382;2022-08-07T06:17:08;94301.88;;;25.07;100.00
12775;BME280;6451;42.630;23.382;2022-08-07T06:19:38;94326.19;;;25.32;100.00
12775;BME280;6451;42.630;23.382;2022-08-07T06:22:05;94312.06;;;25.26;100.00
12775;BME280;6451;42.630;23.382;2022-08-07T06:24:32;94317.56;;;25.13;100.00
12775;BME280;6451;42.630;23.382;2022-08-07T06:27:01;94300.47;;;25.15;100.00
12775;BME280;6451;42.630;23.382;2022-08-07T06:29:31;94323.16;;;25.26;100.00
12775;BME280;6451;42.630;23.382;2022-08-07T06:31:58;94314.84;;;25.26;100.00
12775;BME280;6451;42.630;23.382;2022-08-07T06:34:26;94326.31;;;25.66;100.00
12775;BME280;6451;42.630;23.382;2022-08-07T06:36:53;94318.31;;;25.68;100.00
12775;BME280;6451;42.630;23.382;2022-08-07T06:39:20;94310.78;;;25.69;100.00
12775;BME280;6451;42.630;23.382;2022-08-07T06:41:55;94311.78;;;25.75;100.00
12775;BME280;6451;42.630;23.382;2022-08-07T06:44:25;94294.53;;;25.67;100.00
12775;BME280;6451;42.630;23.382;2022-08-07T06:46:54;94319.22;;;25.91;100.00
12775;BME280;6451;42.630;23.382;2022-08-07T06:49:21;94318.69;;;25.96;100.00
12775;BME280;6451;42.630;23.382;2022-08-07T06:51:48;94315.91;;;25.83;100.00
12775;BME280;6451;42.630;23.382;2022-08-07T06:54:17;94332.22;;;25.56;100.00
12775;BME280;6451;42.630;23.382;2022-08-07T06:56:44;94325.19;;;25.38;100.00
12775;BME280;6451;42.630;23.382;2022-08-07T06:59:17;94322.22;;;25.58;100.00
12775;BME280;6451;42.630;23.382;2022-08-07T07:01:47;94320.31;;;25.68;100.00
12775;BME280;6451;42.630;23.382;2022-08-07T07:04:16;94327.59;;;25.78;100.00
12775;BME280;6451;42.630;23.382;2022-08-07T07:06:44;94328.81;;;25.90;100.00
12775;BME280;6451;42.630;23.382;2022-08-07T07:09:18;94318.34;;;25.94;100.00
12775;BME280;6451;42.630;23.382;2022-08-07T07:11:56;94334.88;;;25.59;100.00
12775;BME280;6451;42.630;23.382;2022-08-07T07:14:25;94327.09;;;25.67;100.00
12775;BME280;6451;42.630;23.382;2022-08-07T07:16:55;94320.00;;;25.66;100.00
12775;BME280;6451;42.630;23.382;2022-08-07T07:19:29;94319.44;;;25.84;100.00
12775;BME280;6451;42.630;23.382;2022-08-07T07:21:58;94331.00;;;25.57;100.00
12775;BME280;6451;42.630;23.382;2022-08-07T07:24:25;94321.44;;;25.70;100.00
12775;BME280;6451;42.630;23.382;2022-08-07T07:26:55;94322.66;;;25.69;100.00
12775;BME280;6451;42.630;23.382;2022-08-07T07:29:26;94313.41;;;25.60;100.00
12775;BME280;6451;42.630;23.382;2022-08-07T07:31:56;94314.00;;;25.55;100.00
12775;BME280;6451;42.630;23.382;2022-08-07T07:34:28;94335.94;;;25.36;100.00
12775;BME280;6451;42.630;23.382;2022-08-07T07:36:58;94325.53;;;25.53;100.00
12775;BME280;6451;42.630;23.382;2022-08-07T07:39:27;94336.66;;;25.66;100.00
12775;BME280;6451;42.630;23.382;2022-08-07T07:41:55;94331.56;;;25.90;100.00
12775;BME280;6451;42.630;23.382;2022-08-07T07:44:27;94337.47;;;25.79;100.00
12775;BME280;6451;42.630;23.382;2022-08-07T07:46:54;94354.41;;;25.85;100.00
12775;BME280;6451;42.630;23.382;2022-08-07T07:49:25;94336.88;;;25.59;100.00
12775;BME280;6451;42.630;23.382;2022-08-07T07:51:56;94332.47;;;25.74;100.00
12775;BME280;6451;42.630;23.382;2022-08-07T07:54:23;94343.59;;;25.99;100.00
12775;BME280;6451;42.630;23.382;2022-08-07T07:56:53;94332.59;;;26.09;100.00
12775;BME280;6451;42.630;23.382;2022-08-07T07:59:21;94347.69;;;26.20;100.00
12775;BME280;6451;42.630;23.382;2022-08-07T08:01:49;94343.34;;;26.32;100.00
12775;BME280;6451;42.630;23.382;2022-08-07T08:04:18;94343.47;;;26.41;100.00
12775;BME280;6451;42.630;23.382;2022-08-07T08:06:46;94338.47;;;26.23;100.00
12775;BME280;6451;42.630;23.382;2022-08-07T08:09:18;94326.75;;;26.54;100.00
12775;BME280;6451;42.630;23.382;2022-08-07T08:11:46;94337.00;;;26.79;100.00
12775;BME280;6451;42.630;23.382;2022-08-07T08:14:14;94346.22;;;26.54;100.00
12775;BME280;6451;42.630;23.382;2022-08-07T08:16:42;94343.22;;;26.36;100.00
12775;BME280;6451;42.630;23.382;2022-08-07T08:19:13;94336.50;;;26.58;100.00
12775;BME280;6451;42.630;23.382;2022-08-07T08:21:46;94351.88;;;26.38;100.00
12775;BME280;6451;42.630;23.382;2022-08-07T08:24:36;94295.97;;;25.97;100.00
12775;BME280;6451;42.630;23.382;2022-08-07T08:27:21;94350.81;;;25.97;100.00
12775;BME280;6451;42.630;23.382;2022-08-07T08:29:53;94349.38;;;26.05;100.00
12775;BME280;6451;42.630;23.382;2022-08-07T08:32:24;94345.50;;;26.15;100.00
12775;BME280;6451;42.630;23.382;2022-08-07T08:34:54;94330.91;;;26.11;100.00
12775;BME280;6451;42.630;23.382;2022-08-07T08:37:24;94334.59;;;25.95;100.00
12775;BME280;6451;42.630;23.382;2022-08-07T08:39:54;94345.03;;;26.04;100.00
12775;BME280;6451;42.630;23.382;2022-08-07T08:42:25;94352.28;;;25.89;100.00
12775;BME280;6451;42.630;23.382;2022-08-07T08:45:02;94304.53;;;25.52;100.00
12775;BME280;6451;42.630;23.382;2022-08-07T08:47:51;94343.16;;;26.01;100.00
12775;BME280;6451;42.630;23.382;2022-08-07T08:50:23;94359.72;;;26.17;100.00
12775;BME280;6451;42.630;23.382;2022-08-07T08:52:56;94368.16;;;26.14;100.00
12775;BME280;6451;42.630;23.382;2022-08-07T08:55:33;94346.03;;;26.23;100.00
12775;BME280;6451;42.630;23.382;2022-08-07T08:58:13;94354.25;;;26.14;100.00
12775;BME280;6451;42.630;23.382;2022-08-07T09:00:46;94356.06;;;26.08;100.00
12775;BME280;6451;42.630;23.382;2022-08-07T09:03:23;94346.72;;;26.01;100.00
12775;BME280;6451;42.630;23.382;2022-08-07T09:05:54;94358.59;;;26.40;100.00
12775;BME280;6451;42.630;23.382;2022-08-07T09:08:34;94345.78;;;26.55;100.00
12775;BME280;6451;42.630;23.382;2022-08-07T09:11:17;94353.44;;;26.64;100.00
12775;BME280;6451;42.630;23.382;2022-08-07T09:13:55;94345.78;;;26.55;100.00
12775;BME280;6451;42.630;23.382;2022-08-07T09:16:33;94299.28;;;26.30;100.00
12775;BME280;6451;42.630;23.382;2022-08-07T09:19:21;94335.56;;;26.74;100.00
12775;BME280;6451;42.630;23.382;2022-08-07T09:22:01;94340.19;;;26.90;100.00
12775;BME280;6451;42.630;23.382;2022-08-07T09:24:43;94323.06;;;27.13;100.00
12775;BME280;6451;42.630;23.382;2022-08-07T09:27:23;94340.13;;;27.37;99.69
12775;BME280;6451;42.630;23.382;2022-08-07T09:29:56;94342.72;;;27.32;97.54
12775;BME280;6451;42.630;23.382;2022-08-07T09:32:36;94323.91;;;27.23;96.35
12775;BME280;6451;42.630;23.382;2022-08-07T09:35:15;94317.31;;;27.30;97.15
12775;BME280;6451;42.630;23.382;2022-08-07T09:37:52;94313.63;;;26.98;94.81
12775;BME280;6451;42.630;23.382;2022-08-07T09:40:25;94320.38;;;27.23;95.29
12775;BME280;6451;42.630;23.382;2022-08-07T09:43:02;94315.38;;;27.18;95.91
12775;BME280;6451;42.630;23.382;2022-08-07T09:45:39;94314.38;;;27.33;97.27
12775;BME280;6451;42.630;23.382;2022-08-07T09:48:16;94317.16;;;27.33;93.05
12775;BME280;6451;42.630;23.382;2022-08-07T09:51:05;94303.38;;;27.30;92.14
12775;BME280;6451;42.630;23.382;2022-08-07T09:53:38;94312.53;;;27.61;96.76
12775;BME280;6451;42.630;23.382;2022-08-07T09:56:47;94314.84;;;27.63;90.45
12775;BME280;6451;42.630;23.382;2022-08-07T09:59:40;94303.19;;;27.55;90.58
12775;BME280;6451;42.630;23.382;2022-08-07T10:05:25;94268.50;;;27.25;86.57
12775;BME280;6451;42.630;23.382;2022-08-07T10:08:03;94252.72;;;27.00;85.03
12775;BME280;6451;42.630;23.382;2022-08-07T10:10:39;94295.97;;;27.36;83.94
12775;BME280;6451;42.630;23.382;2022-08-07T10:13:27;94249.28;;;27.18;84.85
12775;BME280;6451;42.630;23.382;2022-08-07T10:16:12;94294.19;;;27.82;83.16
12775;BME280;6451;42.630;23.382;2022-08-07T10:18:55;94289.72;;;28.34;82.90
12775;BME280;6451;42.630;23.382;2022-08-07T10:21:37;94285.59;;;28.94;79.20
12775;BME280;6451;42.630;23.382;2022-08-07T10:24:33;94283.72;;;28.81;78.65
12775;BME280;6451;42.630;23.382;2022-08-07T10:27:24;94285.75;;;29.08;75.63
12775;BME280;6451;42.630;23.382;2022-08-07T10:30:04;94280.00;;;29.03;74.24
12775;BME280;6451;42.630;23.382;2022-08-07T10:32:59;94249.09;;;28.88;71.63
12775;BME280;6451;42.630;23.382;2022-08-07T10:35:45;94277.84;;;28.61;73.12
12775;BME280;6451;42.630;23.382;2022-08-07T10:38:28;94293.47;;;28.59;75.51
12775;BME280;6451;42.630;23.382;2022-08-07T10:41:06;94303.84;;;28.40;79.01
12775;BME280;6451;42.630;23.382;2022-08-07T10:43:40;94278.50;;;28.07;79.70
12775;BME280;6451;42.630;23.382;2022-08-07T10:46:14;94302.78;;;28.56;78.86
12775;BME280;6451;42.630;23.382;2022-08-07T10:48:53;94305.75;;;28.79;78.90
12775;BME280;6451;42.630;23.382;2022-08-07T10:51:25;94298.91;;;29.35;75.46
12775;BME280;6451;42.630;23.382;2022-08-07T10:54:06;94284.03;;;29.29;73.35
12775;BME280;6451;42.630;23.382;2022-08-07T10:56:43;94297.34;;;29.34;67.97
12775;BME280;6451;42.630;23.382;2022-08-07T10:59:18;94298.94;;;28.71;67.91
12775;BME280;6451;42.630;23.382;2022-08-07T11:01:51;94296.09;;;28.35;73.92
12775;BME280;6451;42.630;23.382;2022-08-07T11:04:30;94280.47;;;28.06;75.12
12775;BME280;6451;42.630;23.382;2022-08-07T11:07:05;94271.03;;;28.13;76.10
12775;BME280;6451;42.630;23.382;2022-08-07T11:09:39;94282.56;;;28.24;74.91
12775;BME280;6451;42.630;23.382;2022-08-07T11:12:14;94296.13;;;28.04;78.24
12775;BME280;6451;42.630;23.382;2022-08-07T11:14:45;94298.72;;;27.89;85.32
12775;BME280;6451;42.630;23.382;2022-08-07T11:17:18;94308.78;;;27.86;84.17
12775;BME280;6451;42.630;23.382;2022-08-07T11:19:51;94311.09;;;27.79;78.56
12775;BME280;6451;42.630;23.382;2022-08-07T11:22:24;94296.22;;;27.82;77.83
12775;BME280;6451;42.630;23.382;2022-08-07T11:24:58;94279.06;;;27.92;78.78
12775;BME280;6451;42.630;23.382;2022-08-07T11:27:30;94274.00;;;28.18;79.05
12775;BME280;6451;42.630;23.382;2022-08-07T11:30:03;94274.41;;;28.57;73.16
12775;BME280;6451;42.630;23.382;2022-08-07T11:32:38;94277.34;;;28.72;74.42
12775;BME280;6451;42.630;23.382;2022-08-07T11:35:09;94290.81;;;28.37;74.61
12775;BME280;6451;42.630;23.382;2022-08-07T11:40:35;94278.91;;;28.82;71.58
12775;BME280;6451;42.630;23.382;2022-08-07T11:43:15;94295.81;;;28.78;68.40
12775;BME280;6451;42.630;23.382;2022-08-07T11:46:02;94270.84;;;28.66;70.14
12775;BME280;6451;42.630;23.382;2022-08-07T11:51:45;94286.38;;;28.85;78.48
12775;BME280;6451;42.630;23.382;2022-08-07T11:54:32;94281.88;;;28.97;77.98
12775;BME280;6451;42.630;23.382;2022-08-07T11:57:08;94293.16;;;28.75;78.93
12775;BME280;6451;42.630;23.382;2022-08-07T11:59:59;94285.25;;;28.83;80.09
12775;BME280;6451;42.630;23.382;2022-08-07T12:02:41;94298.44;;;28.64;81.43
12775;BME280;6451;42.630;23.382;2022-08-07T12:05:18;94307.19;;;28.16;79.29
12775;BME280;6451;42.630;23.382;2022-08-07T12:07:54;94300.78;;;28.47;77.94
12775;BME280;6451;42.630;23.382;2022-08-07T12:10:26;94299.81;;;28.32;79.09
12775;BME280;6451;42.630;23.382;2022-08-07T12:13:01;94246.66;;;27.86;80.48
12775;BME280;6451;42.630;23.382;2022-08-07T12:15:32;94294.47;;;28.15;83.92
12775;BME280;6451;42.630;23.382;2022-08-07T12:18:04;94306.19;;;28.41;85.57
12775;BME280;6451;42.630;23.382;2022-08-07T12:20:36;94290.03;;;28.36;85.51
12775;BME280;6451;42.630;23.382;2022-08-07T12:23:30;94293.81;;;28.61;86.20
12775;BME280;6451;42.630;23.382;2022-08-07T12:26:04;94280.44;;;28.46;82.34
12775;BME280;6451;42.630;23.382;2022-08-07T12:28:40;94280.31;;;28.87;84.78
12775;BME280;6451;42.630;23.382;2022-08-07T12:31:12;94262.47;;;28.47;81.02
12775;BME280;6451;42.630;23.382;2022-08-07T12:33:41;94272.38;;;28.30;84.37
12775;BME280;6451;42.630;23.382;2022-08-07T12:36:08;94252.94;;;28.26;85.01
12775;BME280;6451;42.630;23.382;2022-08-07T12:38:37;94270.69;;;27.92;89.86
12775;BME280;6451;42.630;23.382;2022-08-07T12:41:06;94263.16;;;28.11;90.34
12775;BME280;6451;42.630;23.382;2022-08-07T12:43:36;94285.78;;;28.13;85.99
12775;BME280;6451;42.630;23.382;2022-08-07T12:46:11;94273.03;;;28.03;88.81
12775;BME280;6451;42.630;23.382;2022-08-07T12:48:46;94230.69;;;27.46;89.93
12775;BME280;6451;42.630;23.382;2022-08-07T12:51:23;94265.69;;;27.78;87.06
12775;BME280;6451;42.630;23.382;2022-08-07T12:53:58;94258.50;;;28.08;86.35
12775;BME280;6451;42.630;23.382;2022-08-07T12:56:30;94263.22;;;28.39;86.61
12775;BME280;6451;42.630;23.382;2022-08-07T12:59:00;94252.69;;;28.43;82.81
12775;BME280;6451;42.630;23.382;2022-08-07T13:01:44;94251.75;;;28.55;83.29
12775;BME280;6451;42.630;23.382;2022-08-07T13:07:27;94260.44;;;28.30;81.67
12775;BME280;6451;42.630;23.382;2022-08-07T13:10:10;94261.22;;;28.39;82.74
12775;BME280;6451;42.630;23.382;2022-08-07T13:12:50;94257.47;;;28.51;79.70
12775;BME280;6451;42.630;23.382;2022-08-07T13:15:27;94256.88;;;28.57;78.55
12775;BME280;6451;42.630;23.382;2022-08-07T13:18:08;94219.16;;;28.52;80.19
12775;BME280;6451;42.630;23.382;2022-08-07T13:20:43;94239.34;;;28.47;79.03
12775;BME280;6451;42.630;23.382;2022-08-07T13:23:19;94251.44;;;28.71;79.44
12775;BME280;6451;42.630;23.382;2022-08-07T13:25:55;94232.19;;;28.73;78.75
12775;BME280;6451;42.630;23.382;2022-08-07T13:28:28;94239.94;;;28.88;77.52
12775;BME280;6451;42.630;23.382;2022-08-07T13:31:01;94231.28;;;28.95;75.35